createdAt,value
2017-07-26T00:00:14.425Z,99522.73
2017-07-26T00:02:46.142Z,99527.05
2017-07-26T00:05:17.587Z,99522.03
2017-07-26T00:07:49.032Z,99532.62
2017-07-26T00:10:22.316Z,99529.98
2017-07-26T00:12:53.819Z,99529.41
2017-07-26T00:15:25.937Z,99536.95
2017-07-26T00:17:57.858Z,99540.09
2017-07-26T00:20:29.339Z,99537.45
2017-07-26T00:23:00.745Z,99544.84
2017-07-26T00:25:32.246Z,99541.56
2017-07-26T00:28:04.601Z,99545.27
2017-07-26T00:30:35.985Z,99567.72
2017-07-26T00:33:07.775Z,99558.11
2017-07-26T00:35:39.167Z,99552.03
2017-07-26T00:38:10.695Z,99550.48
2017-07-26T00:40:42.835Z,99553.92
2017-07-26T00:43:14.211Z,99568.86
2017-07-26T00:45:45.608Z,99566.48
2017-07-26T00:48:17.622Z,99571.16
2017-07-26T00:50:49.064Z,99580.36
2017-07-26T00:53:20.514Z,99579.09
2017-07-26T00:55:51.968Z,99579.37
2017-07-26T00:58:23.377Z,99586.27
2017-07-26T01:00:54.795Z,99587.83
2017-07-26T01:03:26.733Z,99589.29
2017-07-26T01:05:58.171Z,99594.94
2017-07-26T01:08:29.558Z,99591.94
2017-07-26T01:11:00.975Z,99595.66
2017-07-26T01:13:32.381Z,99596.19
2017-07-26T01:16:04.969Z,99602.06
2017-07-26T01:18:37.657Z,99605.74
2017-07-26T01:21:09.172Z,99602.12
2017-07-26T01:23:40.573Z,99608.96
2017-07-26T01:26:12.993Z,99609.72
2017-07-26T01:28:44.404Z,99609.09
2017-07-26T01:31:15.832Z,99615.25
2017-07-26T01:33:48.117Z,99615.95
2017-07-26T01:36:20.635Z,99622.11
2017-07-26T01:38:52.037Z,99622.66
2017-07-26T01:41:24.389Z,99622.55
2017-07-26T01:43:55.824Z,99617.94
2017-07-26T01:46:27.221Z,99632.59
2017-07-26T01:48:58.952Z,99628.69
2017-07-26T01:51:30.378Z,99629.75
2017-07-26T01:54:02.473Z,99626.67
2017-07-26T01:56:33.909Z,99624.03
2017-07-26T01:59:05.691Z,99630.25
2017-07-26T02:01:37.120Z,99628.56
2017-07-26T02:04:09.216Z,99631.49
2017-07-26T02:06:41.306Z,99628.73
2017-07-26T02:09:12.681Z,99638.34
2017-07-26T02:11:44.076Z,99637.77
2017-07-26T02:14:18.510Z,99635.11
2017-07-26T02:16:50.464Z,99647.84
2017-07-26T02:19:21.894Z,99650.97
2017-07-26T02:21:53.290Z,99647.68
2017-07-26T02:24:25.085Z,99654.81
2017-07-26T02:26:56.570Z,99651.45
2017-07-26T02:29:27.972Z,99660.47
2017-07-26T02:31:59.699Z,99660.88
2017-07-26T02:34:31.066Z,99659.83
2017-07-26T02:37:02.506Z,99672.05
2017-07-26T02:39:34.428Z,99667.56
2017-07-26T02:42:07.160Z,99668.66
2017-07-26T02:44:38.537Z,99671.91
2017-07-26T02:47:10.384Z,99679.42
2017-07-26T02:49:41.806Z,99680.39
2017-07-26T02:52:13.321Z,99683.36
2017-07-26T02:54:44.983Z,99686.48
2017-07-26T02:57:16.373Z,99684.22
2017-07-26T02:59:47.741Z,99690.97
2017-07-26T03:02:20.133Z,99687.98
2017-07-26T03:04:51.859Z,99677.30
2017-07-26T03:07:23.285Z,99681.33
2017-07-26T03:09:54.697Z,99680.37
2017-07-26T03:12:26.535Z,99681.84
2017-07-26T03:14:58.538Z,99678.77
2017-07-26T03:17:30.075Z,99692.64
2017-07-26T03:20:01.510Z,99688.80
2017-07-26T03:22:33.345Z,99686.20
2017-07-26T03:25:04.735Z,99690.80
2017-07-26T03:27:36.146Z,99690.52
2017-07-26T03:30:08.146Z,99690.61
2017-07-26T03:32:39.499Z,99694.98
2017-07-26T03:35:10.849Z,99692.44
2017-07-26T03:37:42.714Z,99693.05
2017-07-26T03:40:14.317Z,99689.78
2017-07-26T03:42:45.688Z,99699.03
2017-07-26T03:45:17.424Z,99697.27
2017-07-26T03:47:48.885Z,99695.32
2017-07-26T03:50:20.267Z,99705.17
2017-07-26T03:52:52.106Z,99697.78
2017-07-26T03:55:23.521Z,99704.59
2017-07-26T03:57:55.141Z,99703.54
2017-07-26T04:00:26.611Z,99703.01
2017-07-26T04:02:58.299Z,99702.07
2017-07-26T04:05:29.706Z,99705.66
2017-07-26T04:08:01.091Z,99702.02
2017-07-26T04:10:32.523Z,99698.66
2017-07-26T04:13:03.958Z,99698.74
2017-07-26T04:15:35.351Z,99700.91
2017-07-26T04:18:07.366Z,99711.72
2017-07-26T04:20:38.815Z,99714.31
2017-07-26T04:23:10.832Z,99715.77
2017-07-26T04:25:42.230Z,99713.60
2017-07-26T04:28:13.705Z,99719.75
2017-07-26T04:30:45.119Z,99723.25
2017-07-26T04:33:16.821Z,99719.97
2017-07-26T04:35:48.257Z,99719.57
2017-07-26T04:38:19.670Z,99721.66
2017-07-26T04:40:51.020Z,99714.80
2017-07-26T04:43:22.481Z,99715.50
2017-07-26T04:45:53.893Z,99716.91
2017-07-26T04:48:25.822Z,99718.69
2017-07-26T04:50:57.239Z,99718.64
2017-07-26T04:53:28.653Z,99717.64
2017-07-26T04:56:00.378Z,99711.95
2017-07-26T04:58:31.769Z,99709.66
2017-07-26T05:01:03.237Z,99712.42
2017-07-26T05:03:35.010Z,99719.22
2017-07-26T05:06:08.046Z,99722.34
2017-07-26T05:08:39.509Z,99731.48
2017-07-26T05:11:10.941Z,99737.41
2017-07-26T05:13:42.479Z,99738.88
2017-07-26T05:16:14.047Z,99746.08
2017-07-26T05:18:45.933Z,99739.08
2017-07-26T05:21:17.414Z,99750.03
2017-07-26T05:23:48.893Z,99750.17
2017-07-26T05:26:20.476Z,99749.48
2017-07-26T05:28:52.024Z,99753.21
2017-07-26T05:31:23.459Z,99755.04
2017-07-26T05:33:55.310Z,99765.50
2017-07-26T05:36:26.710Z,99755.25
2017-07-26T05:38:58.096Z,99758.13
2017-07-26T05:41:29.712Z,99751.49
2017-07-26T05:44:01.155Z,99754.63
2017-07-26T05:46:32.539Z,99766.92
2017-07-26T05:49:04.431Z,99768.44
2017-07-26T05:51:35.917Z,99769.16
2017-07-26T05:54:07.382Z,99769.61
2017-07-26T05:56:38.788Z,99775.69
2017-07-26T05:59:10.217Z,99769.14
2017-07-26T06:01:41.755Z,99773.26
2017-07-26T06:04:15.162Z,99762.70
2017-07-26T06:06:46.624Z,99782.48
2017-07-26T06:09:18.141Z,99776.11
2017-07-26T06:11:49.625Z,99777.66
2017-07-26T06:14:21.052Z,99771.45
2017-07-26T06:16:52.476Z,99780.33
2017-07-26T06:19:24.296Z,99781.02
2017-07-26T06:21:55.868Z,99780.52
2017-07-26T06:24:27.273Z,99781.72
2017-07-26T06:26:58.729Z,99789.29
2017-07-26T06:29:30.093Z,99785.40
2017-07-26T06:32:03.572Z,99782.62
2017-07-26T06:34:36.469Z,99786.20
2017-07-26T06:37:07.875Z,99791.98
2017-07-26T06:39:40.007Z,99799.53
2017-07-26T06:42:12.226Z,99796.05
2017-07-26T06:44:44.542Z,99789.28
2017-07-26T06:47:18.425Z,99788.43
2017-07-26T06:49:53.045Z,99796.59
2017-07-26T06:52:24.729Z,99795.27
2017-07-26T06:54:56.119Z,99795.78
2017-07-26T06:57:27.531Z,99801.16
2017-07-26T06:59:59.022Z,99806.25
2017-07-26T07:02:30.409Z,99799.08
2017-07-26T07:05:02.251Z,99809.02
2017-07-26T07:07:33.674Z,99804.96
2017-07-26T07:10:06.000Z,99809.28
2017-07-26T07:12:37.808Z,99817.91
2017-07-26T07:15:10.219Z,99815.78
2017-07-26T07:17:42.145Z,99821.41
2017-07-26T07:20:15.961Z,99819.70
2017-07-26T07:22:47.866Z,99823.29
2017-07-26T07:25:19.359Z,99829.77
2017-07-26T07:27:50.916Z,99831.10
2017-07-26T07:30:22.397Z,99836.23
2017-07-26T07:32:54.020Z,99832.63
2017-07-26T07:35:25.962Z,99838.45
2017-07-26T07:37:57.942Z,99847.52
2017-07-26T07:40:29.432Z,99845.13
2017-07-26T07:43:05.250Z,99850.85
2017-07-26T07:45:37.046Z,99844.95
2017-07-26T07:48:09.636Z,99847.34
2017-07-26T07:50:42.041Z,99845.73
2017-07-26T07:53:14.063Z,99849.98
2017-07-26T07:55:48.005Z,99855.72
2017-07-26T07:58:24.220Z,99850.77
2017-07-26T08:01:03.217Z,99851.52
2017-07-26T08:03:40.435Z,99856.09
2017-07-26T08:06:13.548Z,99857.49
2017-07-26T08:08:47.129Z,99863.03
2017-07-26T08:11:23.380Z,99863.27
2017-07-26T08:13:57.595Z,99871.36
2017-07-26T08:16:30.046Z,99860.33
2017-07-26T08:19:07.187Z,99860.33
2017-07-26T08:21:40.502Z,99862.28
2017-07-26T08:27:24.536Z,99857.40
2017-07-26T08:30:19.565Z,99862.34
2017-07-26T08:35:48.630Z,99868.37
2017-07-26T08:38:39.398Z,99865.45
2017-07-26T08:41:18.172Z,99873.17
2017-07-26T08:43:56.109Z,99875.59
2017-07-26T08:46:37.678Z,99870.61
2017-07-26T08:49:24.724Z,99876.42
2017-07-26T08:52:07.188Z,99881.34
2017-07-26T08:54:47.111Z,99878.23
2017-07-26T08:57:31.010Z,99873.44
2017-07-26T09:03:08.268Z,99877.11
2017-07-26T09:39:48.817Z,99883.03
2017-07-26T10:11:01.788Z,99890.86
2017-07-26T10:15:30.338Z,99893.34
2017-07-26T10:18:28.211Z,99885.46
2017-07-26T10:21:26.970Z,99893.45
2017-07-26T10:31:40.649Z,99893.08
2017-07-26T10:34:19.367Z,99890.30
2017-07-26T10:36:54.681Z,99888.56
2017-07-26T10:39:30.755Z,99890.11
2017-07-26T10:42:06.967Z,99886.78
2017-07-26T10:44:40.326Z,99885.50
2017-07-26T10:47:14.757Z,99883.16
2017-07-26T10:49:47.077Z,99883.73
2017-07-26T10:52:21.489Z,99880.52
2017-07-26T10:54:55.860Z,99875.22
2017-07-26T10:57:29.645Z,99879.32
2017-07-26T11:00:09.878Z,99893.83
2017-07-26T11:02:54.830Z,99886.61
2017-07-26T11:05:40.096Z,99883.21
2017-07-26T11:08:21.300Z,99881.69
2017-07-26T11:10:57.155Z,99880.11
2017-07-26T11:13:31.454Z,99880.27
2017-07-26T11:16:07.436Z,99877.65
2017-07-26T11:18:41.920Z,99874.95
2017-07-26T11:21:17.747Z,99894.13
2017-07-26T11:23:51.743Z,99885.95
2017-07-26T11:26:28.833Z,99876.60
2017-07-26T11:29:05.423Z,99897.86
2017-07-26T11:31:46.424Z,99882.16
2017-07-26T11:34:29.442Z,99886.43
2017-07-26T11:37:10.486Z,99887.33
2017-07-26T11:42:38.124Z,99892.58
2017-07-26T11:45:10.065Z,99886.69
2017-07-26T11:47:42.054Z,99898.92
2017-07-26T11:50:13.889Z,99897.58
2017-07-26T11:52:45.990Z,99897.46
2017-07-26T11:55:17.614Z,99912.04
2017-07-26T11:57:49.009Z,99913.98
2017-07-26T12:00:20.932Z,99916.48
2017-07-26T12:02:52.372Z,99919.83
2017-07-26T12:05:23.988Z,99926.83
2017-07-26T12:07:55.977Z,99918.02
2017-07-26T12:10:27.424Z,99923.95
2017-07-26T12:12:58.848Z,99927.14
2017-07-26T12:15:30.758Z,99930.56
2017-07-26T12:18:03.883Z,99934.18
2017-07-26T12:20:35.394Z,99929.59
2017-07-26T12:23:10.489Z,99933.94
2017-07-26T12:25:42.110Z,99926.53
2017-07-26T12:28:13.626Z,99925.73
2017-07-26T12:30:45.408Z,99923.80
2017-07-26T12:33:16.933Z,99936.95
2017-07-26T12:35:48.745Z,99932.31
2017-07-26T12:38:20.342Z,99936.48
2017-07-26T12:40:51.948Z,99935.27
2017-07-26T12:43:23.907Z,99943.73
2017-07-26T12:45:55.396Z,99957.92
2017-07-26T12:48:26.847Z,99950.23
2017-07-26T12:50:58.651Z,99960.97
2017-07-26T12:53:30.078Z,99961.20
2017-07-26T12:56:03.176Z,99950.90
2017-07-26T12:58:34.984Z,99953.72
2017-07-26T13:01:06.360Z,99956.23
2017-07-26T13:03:37.763Z,99948.52
2017-07-26T13:06:09.499Z,99957.89
2017-07-26T13:08:40.848Z,99940.75
2017-07-26T13:11:12.441Z,99947.00
2017-07-26T13:13:44.412Z,99946.03
2017-07-26T13:16:16.341Z,99946.21
2017-07-26T13:18:47.761Z,99950.47
2017-07-26T13:21:19.435Z,99943.25
2017-07-26T13:23:50.869Z,99952.01
2017-07-26T13:26:22.278Z,99956.82
2017-07-26T13:28:54.000Z,99942.42
2017-07-26T13:31:25.408Z,99947.23
2017-07-26T13:33:57.210Z,99954.39
2017-07-26T13:36:28.856Z,99954.97
2017-07-26T13:39:00.257Z,99960.66
2017-07-26T13:41:31.596Z,99947.02
2017-07-26T13:44:05.066Z,99948.58
2017-07-26T13:46:36.498Z,99953.34
2017-07-26T13:49:08.177Z,99952.02
2017-07-26T13:51:39.524Z,99945.26
2017-07-26T13:54:13.610Z,99945.33
2017-07-26T13:56:46.517Z,99937.36
2017-07-26T13:59:19.526Z,99941.81
2017-07-26T14:01:51.224Z,99946.88
2017-07-26T14:04:25.181Z,99936.48
2017-07-26T14:06:59.337Z,99936.94
2017-07-26T14:09:34.368Z,99938.16
2017-07-26T14:12:09.005Z,99929.81
2017-07-26T14:14:44.149Z,99931.71
2017-07-26T14:20:12.924Z,99927.15
2017-07-26T14:22:45.219Z,99932.05
2017-07-26T14:25:17.564Z,99940.56
2017-07-26T14:27:48.987Z,99943.28
2017-07-26T14:30:20.712Z,99932.81
2017-07-26T14:32:52.251Z,99932.92
2017-07-26T14:35:23.954Z,99927.48
2017-07-26T14:37:55.419Z,99933.52
2017-07-26T14:40:27.417Z,99929.50
2017-07-26T14:42:59.733Z,99924.64
2017-07-26T14:45:31.474Z,99920.59
2017-07-26T14:48:05.171Z,99918.27
2017-07-26T14:50:37.220Z,99921.47
2017-07-26T14:53:09.544Z,99918.84
2017-07-26T14:55:41.932Z,99921.89
2017-07-26T14:58:14.430Z,99919.41
2017-07-26T15:00:46.469Z,99923.88
2017-07-26T15:03:18.187Z,99925.87
2017-07-26T15:05:50.807Z,99923.42
2017-07-26T15:08:22.998Z,99926.45
2017-07-26T15:10:55.050Z,99927.28
2017-07-26T15:13:26.501Z,99930.27
2017-07-26T15:15:59.865Z,99930.44
2017-07-26T15:18:31.526Z,99931.01
2017-07-26T15:21:03.939Z,99926.27
2017-07-26T15:23:35.915Z,99926.89
2017-07-26T15:26:08.766Z,99926.16
2017-07-26T15:28:40.661Z,99917.67
2017-07-26T15:31:13.046Z,99920.52
2017-07-26T15:33:44.554Z,99923.47
2017-07-26T15:36:21.064Z,99926.28
2017-07-26T15:38:52.627Z,99925.05
2017-07-26T15:41:24.079Z,99922.06
2017-07-26T15:43:55.862Z,99932.09
2017-07-26T15:46:27.938Z,99920.80
2017-07-26T15:48:59.920Z,99919.02
2017-07-26T15:51:31.923Z,99921.59
2017-07-26T15:54:08.295Z,99926.42
2017-07-26T15:56:40.108Z,99915.66
2017-07-26T15:59:11.695Z,99911.98
2017-07-26T16:01:44.388Z,99909.78
2017-07-26T16:04:16.546Z,99918.91
2017-07-26T16:06:48.382Z,99915.29
2017-07-26T16:09:20.237Z,99918.34
2017-07-26T16:11:51.872Z,99917.31
2017-07-26T16:14:24.949Z,99920.73
2017-07-26T16:16:56.626Z,99919.80
2017-07-26T16:19:28.196Z,99917.48
2017-07-26T16:22:00.043Z,99919.97
2017-07-26T16:24:31.884Z,99918.23
2017-07-26T16:27:03.702Z,99924.30
2017-07-26T16:29:35.134Z,99929.69
2017-07-26T16:32:07.188Z,99928.23
2017-07-26T16:34:38.691Z,99926.40
2017-07-26T16:37:10.262Z,99927.61
2017-07-26T16:39:43.640Z,99923.66
2017-07-26T16:42:16.237Z,99929.95
2017-07-26T16:44:49.399Z,99925.66
2017-07-26T16:47:21.818Z,99930.30
2017-07-26T16:49:53.280Z,99922.97
2017-07-26T16:52:26.085Z,99919.71
2017-07-26T16:54:57.988Z,99925.84
2017-07-26T16:57:30.801Z,99932.40
2017-07-26T17:00:07.532Z,99926.34
2017-07-26T17:02:40.772Z,99927.95
2017-07-26T17:05:13.729Z,99925.55
2017-07-26T17:07:46.958Z,99928.38
2017-07-26T17:10:20.101Z,99936.27
2017-07-26T17:12:51.755Z,99936.34
2017-07-26T17:15:24.020Z,99933.37
2017-07-26T17:18:05.900Z,99929.48
2017-07-26T17:20:44.903Z,99933.68
2017-07-26T17:23:19.137Z,99939.89
2017-07-26T17:25:50.621Z,99941.63
2017-07-26T17:28:22.609Z,99929.19
2017-07-26T17:30:56.483Z,99932.92
2017-07-26T17:33:29.299Z,99923.86
2017-07-26T17:36:03.674Z,99937.01
2017-07-26T17:38:35.290Z,99933.14
2017-07-26T17:41:07.478Z,99929.57
2017-07-26T17:43:42.703Z,99926.92
2017-07-26T17:46:14.921Z,99930.74
2017-07-26T17:48:48.818Z,99924.28
2017-07-26T17:51:21.735Z,99919.05
2017-07-26T17:53:53.904Z,99925.09
2017-07-26T17:56:29.867Z,99930.41
2017-07-26T17:59:14.689Z,99928.50
2017-07-26T18:01:49.539Z,99930.34
2017-07-26T18:04:21.818Z,99936.89
2017-07-26T18:07:01.004Z,99941.16
2017-07-26T18:09:35.656Z,99948.16
2017-07-26T18:12:13.333Z,99946.84
2017-07-26T18:14:45.250Z,99955.67
2017-07-26T18:17:19.721Z,99953.41
2017-07-26T18:19:52.304Z,99954.97
2017-07-26T18:22:24.432Z,99957.85
2017-07-26T18:24:57.932Z,99957.81
2017-07-26T18:27:34.624Z,99958.73
2017-07-26T18:30:11.619Z,99967.18
2017-07-26T18:32:45.106Z,99966.91
2017-07-26T18:35:22.079Z,99969.44
2017-07-26T18:37:58.951Z,99972.20
2017-07-26T18:40:35.198Z,99970.02
2017-07-26T18:43:12.343Z,99980.24
2017-07-26T18:45:44.401Z,99972.33
2017-07-26T18:48:20.824Z,99979.51
2017-07-26T18:50:52.547Z,99983.52
2017-07-26T18:53:24.309Z,99986.86
2017-07-26T18:55:56.171Z,99987.09
2017-07-26T18:58:27.781Z,99988.19
2017-07-26T19:00:59.424Z,99989.02
2017-07-26T19:03:31.321Z,99986.30
2017-07-26T19:06:03.722Z,99987.28
2017-07-26T19:08:35.356Z,99990.03
2017-07-26T19:11:08.581Z,99992.69
2017-07-26T19:13:40.874Z,99992.02
2017-07-26T19:16:12.636Z,99993.59
2017-07-26T19:18:44.883Z,99987.79
2017-07-26T19:21:16.301Z,99990.61
2017-07-26T19:23:48.834Z,99990.38
2017-07-26T19:26:20.377Z,99989.75
2017-07-26T19:28:52.153Z,99993.80
2017-07-26T19:31:23.757Z,99995.64
2017-07-26T19:33:55.171Z,99985.84
2017-07-26T19:36:27.093Z,99985.20
2017-07-26T19:38:58.502Z,99985.67
2017-07-26T19:41:30.165Z,99985.16
2017-07-26T19:44:02.185Z,99987.81
2017-07-26T19:46:34.135Z,99992.39
2017-07-26T19:49:05.610Z,99989.66
2017-07-26T19:51:37.271Z,99988.33
2017-07-26T19:54:15.420Z,99986.37
2017-07-26T19:56:47.221Z,99991.47
2017-07-26T19:59:35.090Z,99988.97
2017-07-26T20:05:04.770Z,99993.50
2017-07-26T20:07:38.995Z,99990.22
2017-07-26T20:10:12.814Z,99993.22
2017-07-26T20:12:45.725Z,99984.10
2017-07-26T20:15:18.694Z,99991.30
2017-07-26T20:17:53.742Z,99990.77
2017-07-26T20:20:29.993Z,99991.65
2017-07-26T20:23:06.299Z,99985.17
2017-07-26T20:25:41.039Z,99992.07
2017-07-26T20:28:15.588Z,99992.52
2017-07-26T20:30:48.586Z,99991.84
2017-07-26T20:33:20.312Z,99997.36
2017-07-26T20:35:51.877Z,99995.06
2017-07-26T20:38:24.378Z,99999.18
2017-07-26T20:40:56.024Z,99995.83
2017-07-26T20:43:28.252Z,99997.61
2017-07-26T20:46:00.441Z,99998.25
2017-07-26T20:48:32.379Z,100000.80
2017-07-26T20:51:04.861Z,100000.33
2017-07-26T20:53:36.900Z,99999.28
2017-07-26T20:56:13.435Z,99996.03
2017-07-26T20:58:45.937Z,99998.37
2017-07-26T21:01:18.311Z,99998.48
2017-07-26T21:03:50.365Z,99997.03
2017-07-26T21:06:23.815Z,99991.82
2017-07-26T21:08:56.263Z,99997.07
2017-07-26T21:11:28.689Z,100000.05
2017-07-26T21:14:00.417Z,99995.52
2017-07-26T21:16:32.563Z,99993.83
2017-07-26T21:19:06.560Z,99991.81
2017-07-26T21:21:38.162Z,99991.19
2017-07-26T21:24:10.800Z,99994.79
2017-07-26T21:26:42.373Z,99988.73
2017-07-26T21:29:14.994Z,99992.83
2017-07-26T21:31:46.502Z,99989.96
2017-07-26T21:34:20.067Z,99989.27
2017-07-26T21:36:53.323Z,99993.16
2017-07-26T21:39:25.243Z,99999.41
2017-07-26T21:41:57.053Z,99994.88
2017-07-26T21:44:30.379Z,99996.38
2017-07-26T21:47:03.908Z,99996.97
2017-07-26T21:49:37.685Z,99995.91
2017-07-26T21:52:09.986Z,99999.76
2017-07-26T21:54:42.902Z,100002.38
2017-07-26T21:57:15.211Z,100002.80
2017-07-26T21:59:47.141Z,100001.74
2017-07-26T22:02:20.477Z,99996.36
2017-07-26T22:04:52.801Z,99995.55
2017-07-26T22:07:24.803Z,99986.03
2017-07-26T22:09:57.205Z,99987.52
2017-07-26T22:12:31.081Z,99994.23
2017-07-26T22:15:03.778Z,99990.81
2017-07-26T22:17:37.033Z,99991.30
2017-07-26T22:20:08.499Z,99985.76
2017-07-26T22:22:39.893Z,99993.51
2017-07-26T22:25:11.591Z,99987.19
2017-07-26T22:27:43.652Z,99995.33
2017-07-26T22:32:50.634Z,99989.63
2017-07-26T22:35:22.316Z,99986.00
2017-07-26T22:37:54.593Z,99992.17
2017-07-26T22:40:26.063Z,99984.13
2017-07-26T22:42:59.127Z,99986.43
2017-07-26T22:45:31.288Z,99989.45
2017-07-26T22:48:03.499Z,99986.58
2017-07-26T22:50:36.803Z,99983.98
2017-07-26T22:53:09.113Z,99982.89
2017-07-26T22:55:40.693Z,99982.80
2017-07-26T22:58:14.355Z,99979.05
2017-07-26T23:00:46.152Z,99974.22
2017-07-26T23:03:17.676Z,99977.84
2017-07-26T23:05:49.216Z,99971.55
2017-07-26T23:08:22.370Z,99976.57
2017-07-26T23:10:56.459Z,99981.34
2017-07-26T23:13:30.635Z,99973.77
2017-07-26T23:16:08.171Z,99969.92
2017-07-26T23:18:44.642Z,99968.17
2017-07-26T23:21:21.292Z,99965.51
2017-07-26T23:23:53.267Z,99966.56
2017-07-26T23:26:24.660Z,99961.91
2017-07-26T23:28:55.990Z,99964.78
2017-07-26T23:31:58.132Z,99972.77
2017-07-26T23:34:29.420Z,99977.08
2017-07-26T23:37:00.727Z,99971.55
2017-07-26T23:39:32.417Z,99969.16
2017-07-26T23:42:04.576Z,99967.88
2017-07-26T23:44:36.187Z,99966.28
2017-07-26T23:47:07.484Z,99956.54
2017-07-26T23:49:38.759Z,99957.81
2017-07-26T23:52:14.572Z,99956.42
2017-07-26T23:54:45.875Z,99957.91
2017-07-26T23:57:17.653Z,99955.95
2017-07-26T23:59:48.929Z,99952.01
